Weather reports worldwide

Advertisment
Cairngorm, United Kingdom (3065): temperature & dewpoint: 13.07.2018 12:00:00 - 19.07.2018 12:00:00 (BST)Cairngorm, United Kingdom (3065): wind speed & gusts: 13.07.2018 12:00:00 - 19.07.2018 12:00:00 (BST)Cairngorm, United Kingdom (3065): wind direction: 13.07.2018 12:00:00 - 19.07.2018 12:00:00 (BST)
Date & Time tt [°C] td [°C] ff [km/h] ff [kn] fx [km/h] fx [kn] dd
19.07.2018 12:00:00 9,8 3,1 29 16 - - SW
19.07.2018 11:00:00 9,6 2,6 22 12 - - WSW
19.07.2018 10:00:00 9,0 2,1 28 15 - - SSW
19.07.2018 09:00:00 8,5 0,6 26 14 - - SW
19.07.2018 08:00:00 7,8 1,5 21 11 - - WSW
19.07.2018 07:00:00 7,2 0,6 22 12 - - SW
19.07.2018 06:00:00 7,1 2,7 26 14 - - SW
19.07.2018 05:00:00 6,7 3,1 26 14 - - SW
19.07.2018 04:00:00 6,8 5,3 26 14 - - SW
19.07.2018 03:00:00 6,7 4,8 24 13 - - SW
19.07.2018 02:00:00 6,7 4,7 24 13 - - SW
19.07.2018 01:00:00 6,8 4,6 21 11 - - SW
19.07.2018 00:00:00 6,2 5,7 15 8 - - S
18.07.2018 23:00:00 6,5 5,0 8 4 - - SW
18.07.2018 22:00:00 6,7 4,6 9 5 - - WNW
18.07.2018 21:00:00 7,8 3,9 11 6 - - W
18.07.2018 20:00:00 8,5 3,1 13 7 - - W
18.07.2018 19:00:00 9,0 3,2 9 5 - - W
18.07.2018 18:00:00 8,6 2,5 5 3 - - NW
18.07.2018 17:00:00 8,4 2,3 13 7 - - W
18.07.2018 16:00:00 8,3 2,3 21 11 - - WNW
18.07.2018 15:00:00 8,0 0,9 21 11 - - WNW
18.07.2018 14:00:00 9,1 2,7 18 10 - - W
18.07.2018 13:00:00 7,4 1,0 16 9 - - W
18.07.2018 12:00:00 8,1 0,8 21 11 - - W
18.07.2018 11:00:00 6,9 1,3 15 8 - - W
18.07.2018 10:00:00 5,6 1,3 22 12 - - W
18.07.2018 09:00:00 4,9 2,7 22 12 - - WNW
18.07.2018 08:00:00 4,4 2,4 24 13 - - W
18.07.2018 07:00:00 4,8 2,7 8 4 - - SW
18.07.2018 06:00:00 5,1 1,7 22 12 - - W
18.07.2018 05:00:00 4,5 3,6 22 12 - - W
18.07.2018 04:00:00 4,6 3,3 22 12 - - W
18.07.2018 03:00:00 4,9 3,0 22 12 - - W
18.07.2018 02:00:00 4,6 3,7 18 10 - - W
18.07.2018 01:00:00 4,0 3,7 21 11 - - W
18.07.2018 00:00:00 4,6 2,8 22 12 - - W
17.07.2018 23:00:00 5,0 4,3 21 11 - - W
17.07.2018 22:00:00 5,0 4,8 29 16 - - WNW
17.07.2018 21:00:00 5,5 4,7 29 16 46 25 W
17.07.2018 20:00:00 6,1 5,2 28 15 - - W
17.07.2018 19:00:00 6,0 5,3 26 14 - - WNW
17.07.2018 18:00:00 6,3 5,2 22 12 - - W
17.07.2018 17:00:00 6,2 5,1 21 11 - - W
17.07.2018 16:00:00 7,3 5,5 22 12 - - W
17.07.2018 15:00:00 6,6 5,7 13 7 - - WSW
17.07.2018 14:00:00 6,6 5,8 16 9 - - W
17.07.2018 13:00:00 6,9 6,0 9 5 - - SW
17.07.2018 12:00:00 6,3 3,0 11 6 - - WNW
17.07.2018 11:00:00 6,4 3,3 11 6 - - WNW
17.07.2018 10:00:00 5,5 4,7 15 8 - - W
17.07.2018 09:00:00 5,5 4,2 16 9 - - WNW
17.07.2018 08:00:00 5,5 3,9 15 8 - - WNW
17.07.2018 07:00:00 5,2 3,9 15 8 - - WNW
17.07.2018 06:00:00 5,4 3,8 22 12 - - W
17.07.2018 05:00:00 5,9 3,5 31 17 - - WSW
17.07.2018 04:00:00 5,4 3,3 24 13 - - WSW
17.07.2018 03:00:00 5,8 3,4 22 12 - - WSW
17.07.2018 02:00:00 5,6 4,1 22 12 - - SW
17.07.2018 01:00:00 5,8 3,4 26 14 - - SW
17.07.2018 00:00:00 6,0 3,5 21 11 - - WSW
16.07.2018 23:00:00 6,6 3,7 13 7 - - W
16.07.2018 22:00:00 6,3 4,7 16 9 - - SW
16.07.2018 21:00:00 7,2 4,2 18 10 - - WSW
16.07.2018 20:00:00 7,5 4,5 15 8 - - WSW
16.07.2018 19:00:00 8,0 3,9 24 13 - - SW
16.07.2018 18:00:00 9,1 3,2 22 12 - - SW
16.07.2018 17:00:00 9,8 4,6 22 12 - - WSW
16.07.2018 16:00:00 9,9 5,5 21 11 - - W
16.07.2018 15:00:00 8,6 5,9 22 12 - - W
16.07.2018 14:00:00 10,1 4,2 24 13 - - SSW
16.07.2018 13:00:00 9,6 5,1 24 13 - - SSW
16.07.2018 12:00:00 9,5 8,2 29 16 - - S
16.07.2018 11:00:00 9,7 9,0 - - - - -
16.07.2018 10:00:00 9,5 9,1 - - - - -
16.07.2018 09:00:00 10,2 10,2 - - - - -
16.07.2018 08:00:00 10,1 10,1 21 11 - - S
16.07.2018 07:00:00 10,1 10,1 - - - - -
16.07.2018 06:00:00 10,1 10,1 29 16 55 30 SSW
16.07.2018 05:00:00 10,4 10,4 46 25 70 38 S
16.07.2018 04:00:00 10,5 10,5 54 29 70 38 S
16.07.2018 03:00:00 10,5 10,5 41 22 54 29 S
16.07.2018 02:00:00 10,5 10,5 39 21 52 28 S
16.07.2018 01:00:00 10,6 10,6 42 23 57 31 S
16.07.2018 00:00:00 10,6 10,6 46 25 57 31 S
15.07.2018 23:00:00 10,7 10,7 35 19 54 29 S
15.07.2018 22:00:00 10,7 10,6 28 15 54 29 SSW
15.07.2018 21:00:00 10,8 10,8 44 24 54 29 S
15.07.2018 20:00:00 10,8 10,8 34 18 - - S
15.07.2018 19:00:00 11,2 11,2 31 17 - - S
15.07.2018 18:00:00 11,1 11,1 37 20 46 25 S
15.07.2018 17:00:00 11,1 11,1 - - - - -
15.07.2018 16:00:00 11,1 11,1 31 17 46 25 SSW
15.07.2018 15:00:00 11,1 10,9 37 20 50 27 S
15.07.2018 14:00:00 11,1 11,0 34 18 50 27 SSW
15.07.2018 13:00:00 11,3 11,2 44 24 57 31 SSW
15.07.2018 12:00:00 11,1 11,0 35 19 48 26 SSW
15.07.2018 11:00:00 11,2 11,0 29 16 - - S
15.07.2018 10:00:00 11,1 11,1 35 19 48 26 S
15.07.2018 09:00:00 10,9 10,8 31 17 - - S
15.07.2018 08:00:00 11,1 10,7 26 14 50 27 SSW
15.07.2018 07:00:00 12,1 10,9 37 20 57 31 SW
15.07.2018 06:00:00 11,1 11,1 34 18 63 34 SW
15.07.2018 05:00:00 12,3 11,4 50 27 65 35 SW
15.07.2018 04:00:00 12,3 12,2 50 27 61 33 SW
15.07.2018 03:00:00 11,7 11,3 41 22 65 35 SW
15.07.2018 02:00:00 11,2 10,7 48 26 72 39 SW
15.07.2018 01:00:00 11,3 11,3 29 16 67 36 SW
15.07.2018 00:00:00 10,8 10,8 41 22 63 34 SSW
14.07.2018 23:00:00 10,9 10,9 42 23 55 30 SSW
14.07.2018 22:00:00 10,6 10,6 35 19 55 30 SSW
14.07.2018 21:00:00 10,6 10,6 39 21 50 27 S
14.07.2018 20:00:00 10,6 10,2 35 19 54 29 S
14.07.2018 19:00:00 11,2 9,4 37 20 55 30 S
14.07.2018 18:00:00 12,4 9,3 39 21 54 29 S
14.07.2018 17:00:00 12,7 8,8 35 19 54 29 SSW
14.07.2018 16:00:00 13,3 8,4 26 14 50 27 SSW
14.07.2018 15:00:00 12,4 7,1 37 20 61 33 SSW
14.07.2018 14:00:00 11,9 6,8 44 24 70 38 SW
14.07.2018 13:00:00 12,5 6,7 57 31 72 39 SW
14.07.2018 12:00:00 11,1 5,8 46 25 74 40 WSW
14.07.2018 11:00:00 11,5 5,2 59 32 74 40 SW
14.07.2018 10:00:00 9,8 5,4 55 30 70 38 SW
14.07.2018 09:00:00 10,9 3,0 57 31 70 38 SW
14.07.2018 08:00:00 10,4 5,7 50 27 63 34 SW
14.07.2018 07:00:00 8,8 5,7 44 24 63 34 SW
14.07.2018 06:00:00 8,2 5,3 52 28 70 38 WSW
14.07.2018 05:00:00 9,1 5,1 52 28 67 36 SW
14.07.2018 04:00:00 8,5 5,1 44 24 59 32 SW
14.07.2018 03:00:00 7,6 6,0 42 23 57 31 SW
14.07.2018 02:00:00 7,4 7,2 39 21 52 28 SW
14.07.2018 01:00:00 7,6 7,5 35 19 - - SW
14.07.2018 00:00:00 8,1 7,7 34 18 - - SSW
13.07.2018 23:00:00 8,0 7,6 16 9 - - SW
13.07.2018 22:00:00 8,8 7,9 31 17 - - WSW
13.07.2018 21:00:00 9,5 7,5 26 14 - - SW
13.07.2018 20:00:00 9,9 7,9 26 14 - - SW
13.07.2018 19:00:00 11,3 7,1 21 11 - - SW
13.07.2018 18:00:00 11,3 7,2 22 12 - - SW
13.07.2018 17:00:00 11,2 6,6 22 12 - - WSW
13.07.2018 16:00:00 10,9 5,4 22 12 - - WSW
13.07.2018 15:00:00 10,9 5,1 22 12 - - SW
13.07.2018 14:00:00 10,0 4,7 26 14 - - SW
13.07.2018 13:00:00 10,2 5,6 22 12 - - SW
13.07.2018 12:00:00 9,0 7,1 16 9 - - WSW

tt = temperature
td = dewpoint
ff = wind speed
fx = gusts
dd = wind direction

Next stations